createdAt,value
2023-03-28T00:01:09.871Z,70.80
2023-03-28T00:03:39.956Z,70.60
2023-03-28T00:06:18.313Z,70.50
2023-03-28T00:08:47.497Z,70.30
2023-03-28T00:11:22.633Z,70.40
2023-03-28T00:13:58.175Z,70.50
2023-03-28T00:16:27.515Z,70.60
2023-03-28T00:18:54.825Z,70.70
2023-03-28T00:21:29.436Z,70.50
2023-03-28T00:24:03.640Z,70.60
2023-03-28T00:26:34.348Z,70.80
2023-03-28T00:29:03.690Z,70.40
2023-03-28T00:31:35.316Z,70.30
2023-03-28T00:34:02.585Z,70.30
2023-03-28T00:36:32.586Z,70.10
2023-03-28T00:39:06.714Z,70.10
2023-03-28T00:41:40.205Z,70.10
2023-03-28T00:44:51.591Z,70.10
2023-03-28T00:47:27.801Z,70.20
2023-03-28T00:50:03.535Z,70.20
2023-03-28T00:52:53.886Z,70.60
2023-03-28T00:55:58.861Z,70.90
2023-03-28T00:58:31.599Z,71.30
2023-03-28T01:00:59.011Z,71.50
2023-03-28T01:03:33.777Z,71.80
2023-03-28T01:06:04.516Z,72.10
2023-03-28T01:08:40.712Z,72.20
2023-03-28T01:11:07.770Z,72.70
2023-03-28T01:13:42.146Z,72.80
2023-03-28T01:16:10.801Z,73.10
2023-03-28T01:18:41.569Z,72.90
2023-03-28T01:21:28.947Z,73.30
2023-03-28T01:24:23.143Z,73.50
2023-03-28T01:27:00.274Z,73.40
2023-03-28T01:30:07.969Z,73.30
2023-03-28T01:33:26.945Z,73.30
2023-03-28T01:36:33.997Z,73.40
2023-03-28T01:39:34.359Z,73.40
2023-03-28T01:42:36.994Z,73.30
2023-03-28T01:45:37.172Z,73.40
2023-03-28T01:48:27.948Z,74.70
2023-03-28T01:51:39.124Z,73.90
2023-03-28T01:54:26.161Z,74.20
2023-03-28T01:57:00.520Z,74.10
2023-03-28T01:59:43.865Z,74.10
2023-03-28T02:03:26.368Z,74.40
2023-03-28T02:06:01.807Z,74.70
2023-03-28T02:08:36.650Z,74.60
2023-03-28T02:11:26.316Z,74.90
2023-03-28T02:14:26.576Z,75.00
2023-03-28T02:17:09.243Z,75.20
2023-03-28T02:19:53.410Z,75.10
2023-03-28T02:22:52.997Z,74.90
2023-03-28T02:25:37.255Z,74.60
2023-03-28T02:28:24.054Z,74.30
2023-03-28T02:31:13.880Z,74.20
2023-03-28T02:33:44.702Z,74.20
2023-03-28T02:36:28.341Z,74.10
2023-03-28T02:39:32.727Z,74.10
2023-03-28T02:42:33.242Z,74.40
2023-03-28T02:45:19.291Z,74.50
2023-03-28T02:48:06.138Z,74.70
2023-03-28T02:50:58.166Z,74.50
2023-03-28T02:53:32.663Z,74.80
2023-03-28T02:56:14.620Z,75.10
2023-03-28T02:59:31.386Z,75.10
2023-03-28T03:01:58.983Z,75.10
2023-03-28T03:04:25.926Z,75.20
2023-03-28T03:06:52.869Z,75.40
2023-03-28T03:09:20.883Z,75.60
2023-03-28T03:11:47.964Z,75.80
2023-03-28T03:14:14.916Z,75.70
2023-03-28T03:16:43.148Z,75.60
2023-03-28T03:19:10.530Z,75.60
2023-03-28T03:21:38.263Z,75.50
2023-03-28T03:24:05.760Z,75.50
2023-03-28T03:26:33.046Z,75.30
2023-03-28T03:29:04.351Z,75.10
2023-03-28T03:31:32.765Z,75.10
2023-03-28T03:34:20.758Z,75.00
2023-03-28T03:36:54.704Z,74.70
2023-03-28T03:39:22.555Z,74.40
2023-03-28T03:41:49.514Z,74.20
2023-03-28T03:44:16.534Z,74.00
2023-03-28T03:46:44.349Z,73.90
2023-03-28T03:49:11.403Z,74.10
2023-03-28T03:51:39.430Z,74.10
2023-03-28T03:54:06.992Z,74.10
2023-03-28T03:56:37.166Z,74.10
2023-03-28T03:59:04.580Z,74.10
2023-03-28T04:01:33.989Z,74.30
2023-03-28T04:04:24.734Z,74.40
2023-03-28T04:07:21.414Z,74.50
2023-03-28T04:09:51.512Z,74.40
2023-03-28T04:12:19.005Z,74.50
2023-03-28T04:14:48.922Z,74.70
2023-03-28T04:17:35.634Z,74.80
2023-03-28T04:20:13.901Z,75.10
2023-03-28T04:23:05.672Z,75.20
2023-03-28T04:25:33.246Z,75.20
2023-03-28T04:28:06.190Z,75.20
2023-03-28T04:30:38.266Z,75.20
2023-03-28T04:33:34.641Z,75.30
2023-03-28T04:36:05.765Z,75.40
2023-03-28T04:38:37.105Z,75.60
2023-03-28T04:41:25.797Z,75.90
2023-03-28T04:44:16.069Z,75.70
2023-03-28T04:46:51.040Z,75.80
2023-03-28T04:49:18.332Z,75.90
2023-03-28T04:51:45.919Z,76.10
2023-03-28T04:54:12.999Z,76.30
2023-03-28T04:56:49.333Z,76.50
2023-03-28T04:59:23.384Z,76.90
2023-03-28T05:01:51.655Z,77.20
2023-03-28T05:04:34.392Z,77.40
2023-03-28T05:07:05.035Z,77.60
2023-03-28T05:09:33.777Z,78.70
2023-03-28T05:12:01.190Z,77.90
2023-03-28T05:14:28.428Z,77.80
2023-03-28T05:17:07.970Z,77.70
2023-03-28T05:20:00.967Z,77.60
2023-03-28T05:22:34.375Z,77.30
2023-03-28T05:25:03.639Z,77.10
2023-03-28T05:27:31.037Z,76.90
2023-03-28T05:29:58.324Z,76.80
2023-03-28T05:32:28.221Z,76.80
2023-03-28T05:34:56.251Z,76.80
2023-03-28T05:37:28.431Z,76.60
2023-03-28T05:39:56.078Z,76.20
2023-03-28T05:42:23.214Z,76.00
2023-03-28T05:44:50.561Z,75.80
2023-03-28T05:47:56.107Z,75.50
2023-03-28T05:50:26.205Z,75.20
2023-03-28T05:52:58.678Z,74.90
2023-03-28T05:55:25.792Z,74.80
2023-03-28T05:57:53.163Z,74.70
2023-03-28T06:00:23.450Z,74.70
2023-03-28T06:02:52.234Z,74.50
2023-03-28T06:05:23.903Z,74.40
2023-03-28T06:07:51.720Z,74.30
2023-03-28T06:10:19.368Z,74.30
2023-03-28T06:13:08.000Z,74.30
2023-03-28T06:15:35.139Z,74.20
2023-03-28T06:18:02.381Z,74.30
2023-03-28T06:20:29.694Z,74.40
2023-03-28T06:22:56.759Z,74.50
2023-03-28T06:25:24.986Z,74.50
2023-03-28T06:27:52.140Z,74.40
2023-03-28T06:30:19.461Z,74.50
2023-03-28T06:32:50.800Z,74.60
2023-03-28T06:35:18.410Z,74.60
2023-03-28T06:37:45.592Z,74.90
2023-03-28T06:40:16.375Z,74.70
2023-03-28T06:42:43.409Z,74.80
2023-03-28T06:45:33.593Z,74.60
2023-03-28T06:48:05.455Z,74.30
2023-03-28T06:51:05.081Z,74.10
2023-03-28T06:53:32.225Z,74.00
2023-03-28T06:55:59.853Z,74.20
2023-03-28T06:58:27.114Z,74.10
2023-03-28T07:01:02.808Z,73.60
2023-03-28T07:03:41.838Z,73.20
2023-03-28T07:06:11.942Z,73.00
2023-03-28T07:08:39.284Z,73.00
2023-03-28T07:11:06.957Z,72.70
2023-03-28T07:13:34.016Z,72.40
2023-03-28T07:16:13.777Z,71.90
2023-03-28T07:18:41.697Z,71.50
2023-03-28T07:21:15.244Z,71.20
2023-03-28T07:23:42.954Z,70.30
2023-03-28T07:26:13.581Z,69.60
2023-03-28T07:28:41.343Z,69.10
2023-03-28T07:31:08.850Z,68.90
2023-03-28T07:33:38.221Z,68.40
2023-03-28T07:36:15.102Z,68.10
2023-03-28T07:38:47.260Z,67.40
2023-03-28T07:41:16.383Z,67.60
2023-03-28T07:43:43.389Z,66.60
2023-03-28T07:46:16.605Z,65.60
2023-03-28T07:48:46.598Z,63.30
2023-03-28T07:51:14.290Z,63.50
2023-03-28T07:53:41.904Z,62.80
2023-03-28T07:56:12.363Z,61.80
2023-03-28T07:58:59.124Z,60.70
2023-03-28T08:01:27.556Z,59.80
2023-03-28T08:04:02.394Z,59.00
2023-03-28T08:06:40.983Z,58.10
2023-03-28T08:09:11.795Z,57.30
2023-03-28T08:11:43.772Z,56.50
2023-03-28T08:14:14.131Z,55.90
2023-03-28T08:16:43.815Z,54.50
2023-03-28T08:19:12.148Z,52.70
2023-03-28T08:22:02.359Z,50.90
2023-03-28T08:24:36.069Z,50.40
2023-03-28T08:27:19.915Z,49.60
2023-03-28T08:29:51.556Z,48.20
2023-03-28T08:32:19.245Z,46.20
2023-03-28T08:34:46.971Z,45.60
2023-03-28T08:37:17.527Z,45.20
2023-03-28T08:39:47.937Z,44.40
2023-03-28T08:42:47.724Z,43.50
2023-03-28T08:45:32.462Z,41.80
2023-03-28T08:48:42.160Z,41.40
2023-03-28T08:51:22.966Z,37.60
2023-03-28T08:54:14.732Z,38.10
2023-03-28T08:56:51.415Z,37.10
2023-03-28T08:59:52.257Z,36.40
2023-03-28T09:02:27.033Z,36.00
2023-03-28T09:05:05.146Z,35.00
2023-03-28T09:08:15.732Z,35.10
2023-03-28T09:11:14.996Z,33.30
2023-03-28T09:14:10.469Z,33.10
2023-03-28T09:17:08.407Z,33.50
2023-03-28T09:20:06.122Z,32.40
2023-03-28T09:23:13.939Z,31.70
2023-03-28T09:26:34.662Z,31.30
2023-03-28T09:29:20.919Z,30.20
2023-03-28T09:31:52.767Z,30.70
2023-03-28T09:34:27.416Z,30.80
2023-03-28T09:37:17.648Z,30.10
2023-03-28T09:39:53.399Z,29.40
2023-03-28T09:42:40.258Z,29.00
2023-03-28T09:46:02.825Z,29.00
2023-03-28T09:48:49.167Z,28.40
2023-03-28T09:51:20.591Z,29.70
2023-03-28T09:53:48.344Z,29.50
2023-03-28T09:56:27.937Z,29.80
2023-03-28T09:59:05.188Z,29.90
2023-03-28T10:01:47.978Z,30.40
2023-03-28T10:04:30.010Z,30.60
2023-03-28T10:07:16.650Z,31.20
2023-03-28T10:09:58.342Z,31.30
2023-03-28T10:12:37.792Z,31.30
2023-03-28T10:15:08.724Z,31.50
2023-03-28T10:18:20.264Z,32.10
2023-03-28T10:20:56.578Z,32.40
2023-03-28T10:23:25.315Z,32.90
2023-03-28T10:25:55.922Z,33.50
2023-03-28T10:28:34.451Z,34.10
2023-03-28T10:31:03.310Z,33.20
2023-03-28T10:33:43.094Z,33.20
2023-03-28T10:36:34.859Z,33.00
2023-03-28T10:39:31.147Z,33.30
2023-03-28T10:42:16.508Z,34.00
2023-03-28T10:45:01.196Z,34.90
2023-03-28T10:47:31.441Z,33.50
2023-03-28T10:50:03.911Z,33.20
2023-03-28T10:52:55.306Z,32.80
2023-03-28T10:55:37.524Z,30.60
2023-03-28T10:58:33.248Z,29.60
2023-03-28T11:04:50.497Z,28.50
2023-03-28T11:07:42.452Z,27.40
2023-03-28T11:10:54.414Z,26.40
2023-03-28T11:14:04.347Z,25.80
2023-03-28T11:16:57.102Z,25.70
2023-03-28T11:20:17.116Z,24.90
2023-03-28T11:23:05.603Z,26.00
2023-03-28T11:26:01.524Z,27.20
2023-03-28T11:29:20.557Z,26.70
2023-03-28T11:32:15.367Z,26.20
2023-03-28T11:35:17.393Z,26.20
2023-03-28T11:37:59.454Z,26.40
2023-03-28T11:40:52.713Z,27.30
2023-03-28T11:43:31.949Z,27.70
2023-03-28T11:46:09.225Z,27.50
2023-03-28T11:48:52.182Z,26.70
2023-03-28T11:51:37.411Z,25.70
2023-03-28T11:54:48.500Z,25.70
2023-03-28T11:57:47.585Z,24.40
2023-03-28T12:00:42.264Z,24.30
2023-03-28T12:03:26.380Z,24.20
2023-03-28T12:06:05.145Z,23.90
2023-03-28T12:09:11.221Z,23.70
2023-03-28T12:12:01.136Z,23.40
2023-03-28T12:14:57.796Z,23.60
2023-03-28T12:17:53.335Z,23.30
2023-03-28T12:20:40.148Z,23.00
2023-03-28T12:23:38.008Z,23.10
2023-03-28T12:26:42.606Z,24.20
2023-03-28T12:29:26.410Z,24.10
2023-03-28T12:32:42.918Z,23.10
2023-03-28T12:35:35.091Z,22.80
2023-03-28T12:38:24.005Z,22.50
2023-03-28T12:41:04.124Z,22.90
2023-03-28T12:43:51.785Z,23.50
2023-03-28T12:46:49.264Z,23.10
2023-03-28T12:49:35.715Z,22.70
2023-03-28T12:52:12.519Z,21.90
2023-03-28T12:55:01.420Z,21.10
2023-03-28T12:57:47.428Z,20.00
2023-03-28T13:01:09.899Z,20.80
2023-03-28T13:04:04.344Z,20.50
2023-03-28T13:07:36.122Z,21.00
2023-03-28T13:10:27.706Z,20.90
2023-03-28T13:13:28.286Z,20.50
2023-03-28T13:16:13.454Z,19.30
2023-03-28T13:19:09.372Z,20.10
2023-03-28T13:21:57.831Z,18.70
2023-03-28T13:24:38.836Z,18.90
2023-03-28T13:27:17.186Z,19.10
2023-03-28T13:29:48.994Z,18.50
2023-03-28T13:32:21.296Z,19.10
2023-03-28T13:34:59.843Z,18.70
2023-03-28T13:37:47.770Z,18.30
2023-03-28T13:40:48.116Z,17.60
2023-03-28T13:43:44.668Z,17.40
2023-03-28T13:46:27.660Z,16.30
2023-03-28T13:49:09.877Z,15.90
2023-03-28T13:51:55.019Z,15.30
2023-03-28T13:54:23.791Z,15.10
2023-03-28T13:56:53.005Z,15.50
2023-03-28T13:59:27.092Z,15.60
2023-03-28T14:01:57.529Z,15.60
2023-03-28T14:04:27.147Z,15.70
2023-03-28T14:06:55.602Z,15.30
2023-03-28T14:09:34.500Z,15.30
2023-03-28T14:12:09.448Z,15.10
2023-03-28T14:15:07.055Z,15.30
2023-03-28T14:17:36.651Z,15.40
2023-03-28T14:20:07.323Z,16.00
2023-03-28T14:22:49.293Z,15.90
2023-03-28T14:25:27.371Z,15.60
2023-03-28T14:27:57.103Z,16.00
2023-03-28T14:30:38.999Z,16.00
2023-03-28T14:33:14.351Z,15.80
2023-03-28T14:35:42.908Z,15.40
2023-03-28T14:38:16.750Z,15.20
2023-03-28T14:40:45.924Z,14.90
2023-03-28T14:43:26.984Z,15.20
2023-03-28T14:45:56.294Z,15.20
2023-03-28T14:48:29.210Z,15.40
2023-03-28T14:50:59.309Z,15.40
2023-03-28T14:53:32.342Z,15.60
2023-03-28T14:56:11.768Z,15.60
2023-03-28T14:58:43.789Z,15.60
2023-03-28T15:01:24.747Z,15.40
2023-03-28T15:03:59.524Z,15.40
2023-03-28T15:06:32.412Z,15.40
2023-03-28T15:09:10.048Z,15.40
2023-03-28T15:11:41.266Z,15.80
2023-03-28T15:14:32.088Z,15.40
2023-03-28T15:16:59.953Z,15.30
2023-03-28T15:19:34.403Z,15.40
2023-03-28T15:22:11.514Z,15.20
2023-03-28T15:24:39.233Z,15.00
2023-03-28T15:27:16.419Z,15.30
2023-03-28T15:29:43.441Z,15.20
2023-03-28T15:32:18.173Z,15.40
2023-03-28T15:34:59.282Z,15.20
2023-03-28T15:37:27.174Z,15.20
2023-03-28T15:40:19.720Z,15.30
2023-03-28T15:42:49.832Z,15.30
2023-03-28T15:45:19.798Z,15.40
2023-03-28T15:47:54.414Z,15.30
2023-03-28T15:50:45.375Z,15.40
2023-03-28T15:53:16.290Z,15.10
2023-03-28T15:55:44.747Z,15.40
2023-03-28T15:58:23.190Z,15.50
2023-03-28T16:01:13.144Z,15.20
2023-03-28T16:03:40.423Z,15.00
2023-03-28T16:06:26.720Z,15.00
2023-03-28T16:09:20.779Z,15.10
2023-03-28T16:12:15.877Z,15.50
2023-03-28T16:14:49.240Z,15.90
2023-03-28T16:17:28.789Z,16.30
2023-03-28T16:20:27.985Z,16.80
2023-03-28T16:22:58.423Z,17.40
2023-03-28T16:25:27.602Z,17.70
2023-03-28T16:27:56.579Z,18.20
2023-03-28T16:30:42.523Z,18.70
2023-03-28T16:33:10.288Z,19.20
2023-03-28T16:35:37.829Z,19.40
2023-03-28T16:38:05.309Z,19.90
2023-03-28T16:40:32.183Z,20.40
2023-03-28T16:42:59.977Z,21.30
2023-03-28T16:45:27.109Z,22.40
2023-03-28T16:47:54.018Z,22.80
2023-03-28T16:50:21.358Z,22.50
2023-03-28T16:52:48.505Z,22.60
2023-03-28T16:55:17.784Z,22.60
2023-03-28T16:57:46.372Z,22.80
2023-03-28T17:00:17.920Z,23.10
2023-03-28T17:02:47.560Z,23.40
2023-03-28T17:05:15.978Z,23.70
2023-03-28T17:07:43.055Z,24.00
2023-03-28T17:10:11.072Z,24.40
2023-03-28T17:12:38.163Z,24.50
2023-03-28T17:15:06.643Z,24.90
2023-03-28T17:17:33.890Z,25.10
2023-03-28T17:20:01.423Z,25.30
2023-03-28T17:22:28.840Z,25.50
2023-03-28T17:24:57.182Z,25.90
2023-03-28T17:27:24.512Z,26.40
2023-03-28T17:29:51.812Z,26.60
2023-03-28T17:32:19.168Z,26.90
2023-03-28T17:34:46.700Z,27.00
2023-03-28T17:37:14.086Z,27.30
2023-03-28T17:39:41.253Z,27.60
2023-03-28T17:42:09.631Z,27.80
2023-03-28T17:44:36.847Z,28.10
2023-03-28T17:47:03.976Z,28.20
2023-03-28T17:49:31.339Z,28.50
2023-03-28T17:51:59.887Z,29.10
2023-03-28T17:54:27.137Z,29.20
2023-03-28T17:56:54.445Z,29.40
2023-03-28T17:59:22.249Z,29.50
2023-03-28T18:01:49.813Z,29.70
2023-03-28T18:04:17.662Z,29.90
2023-03-28T18:07:23.086Z,30.00
2023-03-28T18:09:50.193Z,30.10
2023-03-28T18:12:17.533Z,30.50
2023-03-28T18:14:45.109Z,30.80
2023-03-28T18:17:12.213Z,30.90
2023-03-28T18:19:39.621Z,31.20
2023-03-28T18:22:06.771Z,31.50
2023-03-28T18:24:34.104Z,31.80
2023-03-28T18:27:01.729Z,32.10
2023-03-28T18:29:29.010Z,32.30
2023-03-28T18:31:56.555Z,32.60
2023-03-28T18:34:23.934Z,32.90
2023-03-28T18:36:53.244Z,33.20
2023-03-28T18:39:23.275Z,33.40
2023-03-28T18:41:51.176Z,33.70
2023-03-28T18:44:18.481Z,34.10
2023-03-28T18:46:47.113Z,34.20
2023-03-28T18:49:15.269Z,34.40
2023-03-28T18:51:43.206Z,34.80
2023-03-28T18:54:11.263Z,34.90
2023-03-28T18:56:39.141Z,35.10
2023-03-28T18:59:06.426Z,36.20
2023-03-28T19:01:34.484Z,36.00
2023-03-28T19:04:01.953Z,36.10
2023-03-28T19:06:29.183Z,36.40
2023-03-28T19:08:56.156Z,36.70
2023-03-28T19:11:23.533Z,36.80
2023-03-28T19:13:50.570Z,36.90
2023-03-28T19:16:20.647Z,37.10
2023-03-28T19:18:48.392Z,37.40
2023-03-28T19:21:16.855Z,37.60
2023-03-28T19:23:44.480Z,37.90
2023-03-28T19:26:13.184Z,37.90
2023-03-28T19:28:41.242Z,38.20
2023-03-28T19:31:12.303Z,38.40
2023-03-28T19:33:43.346Z,38.60
2023-03-28T19:36:11.595Z,38.80
2023-03-28T19:38:40.179Z,38.90
2023-03-28T19:41:18.062Z,39.00
2023-03-28T19:43:46.182Z,39.30
2023-03-28T19:46:19.910Z,39.30
2023-03-28T19:48:47.057Z,39.40
2023-03-28T19:51:15.393Z,39.50
2023-03-28T19:53:43.189Z,39.70
2023-03-28T19:56:11.927Z,39.90
2023-03-28T19:58:39.250Z,40.00
2023-03-28T20:01:06.707Z,40.10
2023-03-28T20:03:33.644Z,40.10
2023-03-28T20:06:21.205Z,40.10
2023-03-28T20:08:48.321Z,40.60
2023-03-28T20:11:16.017Z,40.20
2023-03-28T20:13:43.262Z,40.40
2023-03-28T20:16:12.157Z,40.60
2023-03-28T20:18:39.981Z,40.70
2023-03-28T20:21:11.476Z,41.00
2023-03-28T20:23:38.837Z,41.20
2023-03-28T20:26:18.426Z,41.30
2023-03-28T20:28:50.398Z,41.50
2023-03-28T20:31:18.966Z,41.40
2023-03-28T20:33:46.201Z,41.50
2023-03-28T20:36:13.193Z,41.60
2023-03-28T20:38:40.449Z,42.30
2023-03-28T20:41:16.759Z,41.90
2023-03-28T20:43:47.419Z,42.20
2023-03-28T20:46:20.589Z,42.30
2023-03-28T20:48:54.699Z,42.50
2023-03-28T20:51:23.826Z,42.80
2023-03-28T20:53:56.938Z,43.00
2023-03-28T20:56:28.995Z,43.30
2023-03-28T20:59:00.917Z,43.50
2023-03-28T21:01:32.600Z,43.70
2023-03-28T21:04:01.844Z,43.90
2023-03-28T21:06:36.017Z,44.20
2023-03-28T21:09:09.995Z,44.60
2023-03-28T21:11:42.424Z,44.80
2023-03-28T21:14:13.486Z,44.90
2023-03-28T21:16:41.167Z,45.20
2023-03-28T21:19:08.642Z,45.30
2023-03-28T21:21:36.111Z,45.60
2023-03-28T21:24:05.067Z,45.90
2023-03-28T21:26:32.331Z,46.30
2023-03-28T21:28:59.442Z,47.00
2023-03-28T21:31:29.471Z,46.70
2023-03-28T21:33:57.994Z,47.00
2023-03-28T21:36:26.409Z,47.30
2023-03-28T21:38:53.779Z,47.40
2023-03-28T21:41:22.408Z,47.50
2023-03-28T21:43:50.174Z,47.70
2023-03-28T21:46:18.554Z,47.90
2023-03-28T21:48:47.742Z,48.00
2023-03-28T21:51:17.222Z,48.20
2023-03-28T21:53:44.402Z,48.40
2023-03-28T21:56:14.589Z,48.50
2023-03-28T21:58:41.747Z,48.50
2023-03-28T22:01:14.054Z,48.80
2023-03-28T22:03:41.333Z,49.10
2023-03-28T22:06:09.111Z,49.50
2023-03-28T22:08:36.571Z,49.00
2023-03-28T22:11:10.928Z,49.10
2023-03-28T22:13:38.748Z,49.00
2023-03-28T22:16:09.385Z,49.10
2023-03-28T22:18:40.132Z,49.40
2023-03-28T22:21:14.137Z,49.40
2023-03-28T22:23:42.826Z,49.60
2023-03-28T22:26:10.514Z,49.60
2023-03-28T22:28:38.245Z,49.60
2023-03-28T22:31:05.670Z,49.70
2023-03-28T22:33:32.980Z,49.90
2023-03-28T22:36:00.654Z,50.00
2023-03-28T22:38:28.098Z,50.00
2023-03-28T22:40:55.134Z,50.20
2023-03-28T22:43:22.781Z,50.30
2023-03-28T22:45:50.205Z,50.50
2023-03-28T22:48:20.186Z,50.70
2023-03-28T22:50:47.673Z,50.80
2023-03-28T22:53:15.290Z,51.10
2023-03-28T22:55:43.908Z,51.30
2023-03-28T22:58:11.936Z,51.50
2023-03-28T23:00:39.137Z,51.60
2023-03-28T23:03:07.893Z,51.80
2023-03-28T23:05:35.049Z,52.00
2023-03-28T23:08:02.136Z,52.20
2023-03-28T23:10:30.136Z,52.40
2023-03-28T23:12:57.531Z,52.60
2023-03-28T23:15:24.518Z,53.20
2023-03-28T23:17:52.116Z,52.80
2023-03-28T23:20:19.878Z,52.90
2023-03-28T23:22:48.715Z,53.10
2023-03-28T23:25:19.500Z,53.20
2023-03-28T23:27:46.845Z,53.40
2023-03-28T23:30:15.896Z,53.50
2023-03-28T23:32:43.022Z,53.70
2023-03-28T23:35:11.629Z,53.90
2023-03-28T23:37:39.365Z,54.00
2023-03-28T23:40:14.537Z,54.20
2023-03-28T23:42:44.293Z,54.50
2023-03-28T23:45:14.528Z,54.60
2023-03-28T23:47:43.579Z,54.70
2023-03-28T23:50:11.173Z,54.90
2023-03-28T23:52:38.278Z,55.10
2023-03-28T23:55:07.962Z,55.40
2023-03-28T23:57:35.081Z,55.50
